sensor_id;sensor_type;location;lat;lon;timestamp;temperature;humidity
7159;DHT22;63175;52.374;13.132;2023-01-09T00:01:50;7.00;99.90
7159;DHT22;63175;52.374;13.132;2023-01-09T00:04:18;7.00;99.90
7159;DHT22;63175;52.374;13.132;2023-01-09T00:06:45;7.00;99.90
7159;DHT22;63175;52.374;13.132;2023-01-09T00:09:18;6.90;99.90
7159;DHT22;63175;52.374;13.132;2023-01-09T00:11:45;6.90;99.90
7159;DHT22;63175;52.374;13.132;2023-01-09T00:14:13;6.90;99.90
7159;DHT22;63175;52.374;13.132;2023-01-09T00:16:40;6.90;99.90
7159;DHT22;63175;52.374;13.132;2023-01-09T00:19:08;6.90;99.90
7159;DHT22;63175;52.374;13.132;2023-01-09T00:21:36;6.90;99.90
7159;DHT22;63175;52.374;13.132;2023-01-09T00:24:04;6.90;99.90
7159;DHT22;63175;52.374;13.132;2023-01-09T00:26:31;6.80;99.90
7159;DHT22;63175;52.374;13.132;2023-01-09T00:28:58;6.80;99.90
7159;DHT22;63175;52.374;13.132;2023-01-09T00:31:25;6.80;99.90
7159;DHT22;63175;52.374;13.132;2023-01-09T00:33:55;6.80;99.90
7159;DHT22;63175;52.374;13.132;2023-01-09T00:36:26;6.70;99.90
7159;DHT22;63175;52.374;13.132;2023-01-09T00:38:53;6.70;99.90
7159;DHT22;63175;52.374;13.132;2023-01-09T00:41:23;6.70;99.90
7159;DHT22;63175;52.374;13.132;2023-01-09T00:43:52;6.70;99.90
7159;DHT22;63175;52.374;13.132;2023-01-09T00:46:24;6.70;99.90
7159;DHT22;63175;52.374;13.132;2023-01-09T00:48:52;6.70;99.90
7159;DHT22;63175;52.374;13.132;2023-01-09T00:51:19;6.70;99.90
7159;DHT22;63175;52.374;13.132;2023-01-09T00:53:48;6.70;99.90
7159;DHT22;63175;52.374;13.132;2023-01-09T00:56:17;6.70;99.90
7159;DHT22;63175;52.374;13.132;2023-01-09T00:58:45;6.60;99.90
7159;DHT22;63175;52.374;13.132;2023-01-09T01:01:12;6.60;99.90
7159;DHT22;63175;52.374;13.132;2023-01-09T01:03:39;6.60;99.90
7159;DHT22;63175;52.374;13.132;2023-01-09T01:06:06;6.50;99.90
7159;DHT22;63175;52.374;13.132;2023-01-09T01:08:51;6.50;99.90
7159;DHT22;63175;52.374;13.132;2023-01-09T01:11:20;6.50;99.90
7159;DHT22;63175;52.374;13.132;2023-01-09T01:13:47;6.40;99.90
7159;DHT22;63175;52.374;13.132;2023-01-09T01:16:14;6.40;99.90
7159;DHT22;63175;52.374;13.132;2023-01-09T01:18:43;6.40;99.90
7159;DHT22;63175;52.374;13.132;2023-01-09T01:21:11;6.40;99.90
7159;DHT22;63175;52.374;13.132;2023-01-09T01:23:38;6.30;99.90
7159;DHT22;63175;52.374;13.132;2023-01-09T01:26:08;6.30;99.90
7159;DHT22;63175;52.374;13.132;2023-01-09T01:28:36;6.30;99.90
7159;DHT22;63175;52.374;13.132;2023-01-09T01:31:04;6.30;99.90
7159;DHT22;63175;52.374;13.132;2023-01-09T01:33:31;6.30;99.90
7159;DHT22;63175;52.374;13.132;2023-01-09T01:36:00;6.30;99.90
7159;DHT22;63175;52.374;13.132;2023-01-09T01:38:27;6.20;99.90
7159;DHT22;63175;52.374;13.132;2023-01-09T01:40:55;6.20;99.90
7159;DHT22;63175;52.374;13.132;2023-01-09T01:43:24;6.20;99.90
7159;DHT22;63175;52.374;13.132;2023-01-09T01:45:51;6.20;99.90
7159;DHT22;63175;52.374;13.132;2023-01-09T01:48:21;6.20;99.90
7159;DHT22;63175;52.374;13.132;2023-01-09T01:50:50;6.10;99.90
7159;DHT22;63175;52.374;13.132;2023-01-09T01:53:22;6.10;99.90
7159;DHT22;63175;52.374;13.132;2023-01-09T01:55:56;6.10;99.90
7159;DHT22;63175;52.374;13.132;2023-01-09T01:58:29;6.10;99.90
7159;DHT22;63175;52.374;13.132;2023-01-09T02:00:56;6.10;99.90
7159;DHT22;63175;52.374;13.132;2023-01-09T02:03:26;6.00;99.90
7159;DHT22;63175;52.374;13.132;2023-01-09T02:05:53;6.00;99.90
7159;DHT22;63175;52.374;13.132;2023-01-09T02:08:21;6.00;99.90
7159;DHT22;63175;52.374;13.132;2023-01-09T02:10:48;6.00;99.90
7159;DHT22;63175;52.374;13.132;2023-01-09T02:13:15;6.00;99.90
7159;DHT22;63175;52.374;13.132;2023-01-09T02:15:52;6.00;99.90
7159;DHT22;63175;52.374;13.132;2023-01-09T02:18:39;5.90;99.90
7159;DHT22;63175;52.374;13.132;2023-01-09T02:21:14;5.90;99.90
7159;DHT22;63175;52.374;13.132;2023-01-09T02:24:17;5.90;99.90
7159;DHT22;63175;52.374;13.132;2023-01-09T02:27:02;5.90;99.90
7159;DHT22;63175;52.374;13.132;2023-01-09T02:30:11;5.90;99.90
7159;DHT22;63175;52.374;13.132;2023-01-09T02:32:55;5.90;99.90
7159;DHT22;63175;52.374;13.132;2023-01-09T02:35:34;5.80;99.90
7159;DHT22;63175;52.374;13.132;2023-01-09T02:38:11;5.80;99.90
7159;DHT22;63175;52.374;13.132;2023-01-09T02:40:51;5.80;99.90
7159;DHT22;63175;52.374;13.132;2023-01-09T02:43:19;5.80;99.90
7159;DHT22;63175;52.374;13.132;2023-01-09T02:45:47;5.70;99.90
7159;DHT22;63175;52.374;13.132;2023-01-09T02:48:14;5.80;99.90
7159;DHT22;63175;52.374;13.132;2023-01-09T02:50:45;5.70;99.90
7159;DHT22;63175;52.374;13.132;2023-01-09T02:53:30;5.70;99.90
7159;DHT22;63175;52.374;13.132;2023-01-09T02:56:19;5.70;99.90
7159;DHT22;63175;52.374;13.132;2023-01-09T02:59:19;5.70;99.90
7159;DHT22;63175;52.374;13.132;2023-01-09T03:01:55;5.70;99.90
7159;DHT22;63175;52.374;13.132;2023-01-09T03:04:31;5.70;99.90
7159;DHT22;63175;52.374;13.132;2023-01-09T03:07:02;5.70;99.90
7159;DHT22;63175;52.374;13.132;2023-01-09T03:09:35;5.70;99.90
7159;DHT22;63175;52.374;13.132;2023-01-09T03:12:08;5.70;99.90
7159;DHT22;63175;52.374;13.132;2023-01-09T03:14:39;5.70;99.90
7159;DHT22;63175;52.374;13.132;2023-01-09T03:17:11;5.70;99.90
7159;DHT22;63175;52.374;13.132;2023-01-09T03:19:40;5.70;99.90
7159;DHT22;63175;52.374;13.132;2023-01-09T03:22:08;5.70;99.90
7159;DHT22;63175;52.374;13.132;2023-01-09T03:24:35;5.70;99.90
7159;DHT22;63175;52.374;13.132;2023-01-09T03:27:04;5.80;99.90
7159;DHT22;63175;52.374;13.132;2023-01-09T03:29:32;5.80;99.90
7159;DHT22;63175;52.374;13.132;2023-01-09T03:31:58;5.80;99.90
7159;DHT22;63175;52.374;13.132;2023-01-09T03:34:27;5.80;99.90
7159;DHT22;63175;52.374;13.132;2023-01-09T03:36:53;5.80;99.90
7159;DHT22;63175;52.374;13.132;2023-01-09T03:39:20;5.80;99.90
7159;DHT22;63175;52.374;13.132;2023-01-09T03:41:47;5.80;99.90
7159;DHT22;63175;52.374;13.132;2023-01-09T03:44:14;5.80;99.90
7159;DHT22;63175;52.374;13.132;2023-01-09T03:46:41;5.80;99.90
7159;DHT22;63175;52.374;13.132;2023-01-09T03:49:07;5.80;99.90
7159;DHT22;63175;52.374;13.132;2023-01-09T03:51:36;5.70;99.90
7159;DHT22;63175;52.374;13.132;2023-01-09T03:54:03;5.70;99.90
7159;DHT22;63175;52.374;13.132;2023-01-09T03:56:30;5.70;99.90
7159;DHT22;63175;52.374;13.132;2023-01-09T03:58:56;5.70;99.90
7159;DHT22;63175;52.374;13.132;2023-01-09T04:01:23;5.70;99.90
7159;DHT22;63175;52.374;13.132;2023-01-09T04:03:50;5.80;99.90
7159;DHT22;63175;52.374;13.132;2023-01-09T04:06:17;5.70;99.90
7159;DHT22;63175;52.374;13.132;2023-01-09T04:08:45;5.80;99.90
7159;DHT22;63175;52.374;13.132;2023-01-09T04:11:12;5.80;99.90
7159;DHT22;63175;52.374;13.132;2023-01-09T04:13:39;5.80;99.90
7159;DHT22;63175;52.374;13.132;2023-01-09T04:16:06;5.80;99.90
7159;DHT22;63175;52.374;13.132;2023-01-09T04:18:33;5.80;99.90
7159;DHT22;63175;52.374;13.132;2023-01-09T04:21:00;5.80;99.90
7159;DHT22;63175;52.374;13.132;2023-01-09T04:23:26;5.80;99.90
7159;DHT22;63175;52.374;13.132;2023-01-09T04:25:55;5.80;99.90
7159;DHT22;63175;52.374;13.132;2023-01-09T04:28:21;5.80;99.90
7159;DHT22;63175;52.374;13.132;2023-01-09T04:30:48;5.80;99.90
7159;DHT22;63175;52.374;13.132;2023-01-09T04:33:15;5.80;99.90
7159;DHT22;63175;52.374;13.132;2023-01-09T04:35:42;5.80;99.90
7159;DHT22;63175;52.374;13.132;2023-01-09T04:38:09;5.80;99.90
7159;DHT22;63175;52.374;13.132;2023-01-09T04:40:36;5.80;99.90
7159;DHT22;63175;52.374;13.132;2023-01-09T04:43:04;5.80;99.90
7159;DHT22;63175;52.374;13.132;2023-01-09T04:45:31;5.80;99.90
7159;DHT22;63175;52.374;13.132;2023-01-09T04:47:58;5.80;99.90
7159;DHT22;63175;52.374;13.132;2023-01-09T04:50:24;5.80;99.90
7159;DHT22;63175;52.374;13.132;2023-01-09T04:52:51;5.80;99.90
7159;DHT22;63175;52.374;13.132;2023-01-09T04:55:18;5.80;99.90
7159;DHT22;63175;52.374;13.132;2023-01-09T04:57:45;5.80;99.90
7159;DHT22;63175;52.374;13.132;2023-01-09T05:00:14;5.80;99.90
7159;DHT22;63175;52.374;13.132;2023-01-09T05:02:41;5.80;99.90
7159;DHT22;63175;52.374;13.132;2023-01-09T05:05:08;5.80;99.90
7159;DHT22;63175;52.374;13.132;2023-01-09T05:07:35;5.80;99.90
7159;DHT22;63175;52.374;13.132;2023-01-09T05:10:03;5.80;99.90
7159;DHT22;63175;52.374;13.132;2023-01-09T05:12:30;5.80;99.90
7159;DHT22;63175;52.374;13.132;2023-01-09T05:14:59;5.80;99.90
7159;DHT22;63175;52.374;13.132;2023-01-09T05:17:27;5.90;99.90
7159;DHT22;63175;52.374;13.132;2023-01-09T05:19:54;5.90;99.90
7159;DHT22;63175;52.374;13.132;2023-01-09T05:22:20;5.90;99.90
7159;DHT22;63175;52.374;13.132;2023-01-09T05:24:47;5.90;99.90
7159;DHT22;63175;52.374;13.132;2023-01-09T05:27:14;5.90;99.90
7159;DHT22;63175;52.374;13.132;2023-01-09T05:29:41;5.90;99.90
7159;DHT22;63175;52.374;13.132;2023-01-09T05:32:08;5.90;99.90
7159;DHT22;63175;52.374;13.132;2023-01-09T05:34:36;5.90;99.90
7159;DHT22;63175;52.374;13.132;2023-01-09T05:37:03;6.00;99.90
7159;DHT22;63175;52.374;13.132;2023-01-09T05:39:29;6.00;99.90
7159;DHT22;63175;52.374;13.132;2023-01-09T05:41:56;6.00;99.90
7159;DHT22;63175;52.374;13.132;2023-01-09T05:44:23;6.00;99.90
7159;DHT22;63175;52.374;13.132;2023-01-09T05:46:50;6.00;99.90
7159;DHT22;63175;52.374;13.132;2023-01-09T05:49:17;6.00;99.90
7159;DHT22;63175;52.374;13.132;2023-01-09T05:51:45;6.10;99.90
7159;DHT22;63175;52.374;13.132;2023-01-09T05:54:12;6.10;99.90
7159;DHT22;63175;52.374;13.132;2023-01-09T05:56:38;6.10;99.90
7159;DHT22;63175;52.374;13.132;2023-01-09T05:59:07;6.10;99.90
7159;DHT22;63175;52.374;13.132;2023-01-09T06:01:33;6.10;99.90
7159;DHT22;63175;52.374;13.132;2023-01-09T06:04:00;6.10;99.90
7159;DHT22;63175;52.374;13.132;2023-01-09T06:06:27;6.10;99.90
7159;DHT22;63175;52.374;13.132;2023-01-09T06:08:56;6.10;99.90
7159;DHT22;63175;52.374;13.132;2023-01-09T06:11:22;6.10;99.90
7159;DHT22;63175;52.374;13.132;2023-01-09T06:13:49;6.10;99.90
7159;DHT22;63175;52.374;13.132;2023-01-09T06:16:16;6.10;99.90
7159;DHT22;63175;52.374;13.132;2023-01-09T06:18:43;6.10;99.90
7159;DHT22;63175;52.374;13.132;2023-01-09T06:21:10;6.10;99.90
7159;DHT22;63175;52.374;13.132;2023-01-09T06:23:37;6.10;99.90
7159;DHT22;63175;52.374;13.132;2023-01-09T06:26:05;6.10;99.90
7159;DHT22;63175;52.374;13.132;2023-01-09T06:28:32;6.10;99.90
7159;DHT22;63175;52.374;13.132;2023-01-09T06:30:59;6.10;99.90
7159;DHT22;63175;52.374;13.132;2023-01-09T06:33:26;6.10;99.90
7159;DHT22;63175;52.374;13.132;2023-01-09T06:35:52;6.20;99.90
7159;DHT22;63175;52.374;13.132;2023-01-09T06:38:19;6.20;99.90
7159;DHT22;63175;52.374;13.132;2023-01-09T06:40:46;6.20;99.90
7159;DHT22;63175;52.374;13.132;2023-01-09T06:43:16;6.20;99.90
7159;DHT22;63175;52.374;13.132;2023-01-09T06:45:42;6.20;99.90
7159;DHT22;63175;52.374;13.132;2023-01-09T06:48:09;6.20;99.90
7159;DHT22;63175;52.374;13.132;2023-01-09T06:50:36;6.20;99.90
7159;DHT22;63175;52.374;13.132;2023-01-09T06:53:03;6.20;99.90
7159;DHT22;63175;52.374;13.132;2023-01-09T06:55:30;6.10;99.90
7159;DHT22;63175;52.374;13.132;2023-01-09T06:57:57;6.20;99.90
7159;DHT22;63175;52.374;13.132;2023-01-09T07:00:25;6.20;99.90
7159;DHT22;63175;52.374;13.132;2023-01-09T07:02:52;6.20;99.90
7159;DHT22;63175;52.374;13.132;2023-01-09T07:05:19;6.20;99.90
7159;DHT22;63175;52.374;13.132;2023-01-09T07:07:46;6.20;99.90
7159;DHT22;63175;52.374;13.132;2023-01-09T07:10:13;6.10;99.90
7159;DHT22;63175;52.374;13.132;2023-01-09T07:12:40;6.20;99.90
7159;DHT22;63175;52.374;13.132;2023-01-09T07:15:08;6.10;99.90
7159;DHT22;63175;52.374;13.132;2023-01-09T07:17:36;6.10;99.90
7159;DHT22;63175;52.374;13.132;2023-01-09T07:20:04;6.20;99.90
7159;DHT22;63175;52.374;13.132;2023-01-09T07:22:31;6.20;99.90
7159;DHT22;63175;52.374;13.132;2023-01-09T07:24:58;6.20;99.90
7159;DHT22;63175;52.374;13.132;2023-01-09T07:27:25;6.20;99.90
7159;DHT22;63175;52.374;13.132;2023-01-09T07:29:52;6.20;99.90
7159;DHT22;63175;52.374;13.132;2023-01-09T07:32:18;6.20;99.90
7159;DHT22;63175;52.374;13.132;2023-01-09T07:34:47;6.20;99.90
7159;DHT22;63175;52.374;13.132;2023-01-09T07:37:16;6.20;99.90
7159;DHT22;63175;52.374;13.132;2023-01-09T07:39:42;6.20;99.90
7159;DHT22;63175;52.374;13.132;2023-01-09T07:42:09;6.30;99.90
7159;DHT22;63175;52.374;13.132;2023-01-09T07:44:36;6.30;99.90
7159;DHT22;63175;52.374;13.132;2023-01-09T07:47:03;6.30;99.90
7159;DHT22;63175;52.374;13.132;2023-01-09T07:49:30;6.30;99.90
7159;DHT22;63175;52.374;13.132;2023-01-09T07:51:59;6.30;99.90
7159;DHT22;63175;52.374;13.132;2023-01-09T07:54:26;6.30;99.90
7159;DHT22;63175;52.374;13.132;2023-01-09T07:56:52;6.30;99.90
7159;DHT22;63175;52.374;13.132;2023-01-09T07:59:20;6.30;99.90
7159;DHT22;63175;52.374;13.132;2023-01-09T08:01:47;6.30;99.90
7159;DHT22;63175;52.374;13.132;2023-01-09T08:04:14;6.30;99.90
7159;DHT22;63175;52.374;13.132;2023-01-09T08:06:41;6.30;99.90
7159;DHT22;63175;52.374;13.132;2023-01-09T08:09:09;6.30;99.90
7159;DHT22;63175;52.374;13.132;2023-01-09T08:11:36;6.30;99.90
7159;DHT22;63175;52.374;13.132;2023-01-09T08:14:02;6.40;99.90
7159;DHT22;63175;52.374;13.132;2023-01-09T08:16:29;6.40;99.90
7159;DHT22;63175;52.374;13.132;2023-01-09T08:18:56;6.40;99.90
7159;DHT22;63175;52.374;13.132;2023-01-09T08:21:23;6.40;99.90
7159;DHT22;63175;52.374;13.132;2023-01-09T08:23:50;6.40;99.90
7159;DHT22;63175;52.374;13.132;2023-01-09T08:26:18;6.40;99.90
7159;DHT22;63175;52.374;13.132;2023-01-09T08:28:45;6.40;99.90
7159;DHT22;63175;52.374;13.132;2023-01-09T08:31:13;6.50;99.90
7159;DHT22;63175;52.374;13.132;2023-01-09T08:33:40;6.50;99.90
7159;DHT22;63175;52.374;13.132;2023-01-09T08:36:07;6.50;99.90
7159;DHT22;63175;52.374;13.132;2023-01-09T08:38:34;6.50;99.90
7159;DHT22;63175;52.374;13.132;2023-01-09T08:41:01;6.50;99.90
7159;DHT22;63175;52.374;13.132;2023-01-09T08:43:50;6.40;99.90
7159;DHT22;63175;52.374;13.132;2023-01-09T08:46:34;6.50;99.90
7159;DHT22;63175;52.374;13.132;2023-01-09T08:49:19;6.50;99.90
7159;DHT22;63175;52.374;13.132;2023-01-09T08:51:46;6.50;99.90
7159;DHT22;63175;52.374;13.132;2023-01-09T08:54:13;6.50;99.90
7159;DHT22;63175;52.374;13.132;2023-01-09T08:56:40;6.50;99.90
7159;DHT22;63175;52.374;13.132;2023-01-09T08:59:09;6.50;99.90
7159;DHT22;63175;52.374;13.132;2023-01-09T09:01:36;6.50;99.90
7159;DHT22;63175;52.374;13.132;2023-01-09T09:04:03;6.60;99.90
7159;DHT22;63175;52.374;13.132;2023-01-09T09:06:30;6.60;99.90
7159;DHT22;63175;52.374;13.132;2023-01-09T09:08:57;6.60;99.90
7159;DHT22;63175;52.374;13.132;2023-01-09T09:11:28;6.60;99.90
7159;DHT22;63175;52.374;13.132;2023-01-09T09:13:55;6.60;99.90
7159;DHT22;63175;52.374;13.132;2023-01-09T09:16:24;6.70;99.90
7159;DHT22;63175;52.374;13.132;2023-01-09T09:18:52;6.70;99.90
7159;DHT22;63175;52.374;13.132;2023-01-09T09:21:19;6.70;99.90
7159;DHT22;63175;52.374;13.132;2023-01-09T09:23:46;6.70;99.90
7159;DHT22;63175;52.374;13.132;2023-01-09T09:26:13;6.80;99.90
7159;DHT22;63175;52.374;13.132;2023-01-09T09:28:39;6.80;99.90
7159;DHT22;63175;52.374;13.132;2023-01-09T09:31:06;6.90;99.90
7159;DHT22;63175;52.374;13.132;2023-01-09T09:33:35;6.90;99.90
7159;DHT22;63175;52.374;13.132;2023-01-09T09:36:02;6.90;99.90
7159;DHT22;63175;52.374;13.132;2023-01-09T09:38:29;7.00;99.90
7159;DHT22;63175;52.374;13.132;2023-01-09T09:41:18;7.00;99.90
7159;DHT22;63175;52.374;13.132;2023-01-09T09:44:20;7.00;99.90
7159;DHT22;63175;52.374;13.132;2023-01-09T09:47:19;7.10;99.90
7159;DHT22;63175;52.374;13.132;2023-01-09T09:49:59;7.10;99.90
7159;DHT22;63175;52.374;13.132;2023-01-09T09:52:35;7.20;99.90
7159;DHT22;63175;52.374;13.132;2023-01-09T09:55:14;7.20;99.90
7159;DHT22;63175;52.374;13.132;2023-01-09T09:57:43;7.20;99.90
7159;DHT22;63175;52.374;13.132;2023-01-09T10:00:17;7.20;99.90
7159;DHT22;63175;52.374;13.132;2023-01-09T10:02:48;7.30;99.90
7159;DHT22;63175;52.374;13.132;2023-01-09T10:05:23;7.30;99.90
7159;DHT22;63175;52.374;13.132;2023-01-09T10:07:51;7.30;99.90
7159;DHT22;63175;52.374;13.132;2023-01-09T10:10:28;7.40;99.90
7159;DHT22;63175;52.374;13.132;2023-01-09T10:12:57;7.40;99.90
7159;DHT22;63175;52.374;13.132;2023-01-09T10:15:30;7.50;99.90
7159;DHT22;63175;52.374;13.132;2023-01-09T10:18:08;7.50;99.90
7159;DHT22;63175;52.374;13.132;2023-01-09T10:20:58;7.50;99.90
7159;DHT22;63175;52.374;13.132;2023-01-09T10:26:50;7.60;99.90
7159;DHT22;63175;52.374;13.132;2023-01-09T10:29:39;7.60;99.90
7159;DHT22;63175;52.374;13.132;2023-01-09T10:35:27;7.70;99.90
7159;DHT22;63175;52.374;13.132;2023-01-09T10:37:59;7.70;99.90
7159;DHT22;63175;52.374;13.132;2023-01-09T10:40:31;7.70;99.90
7159;DHT22;63175;52.374;13.132;2023-01-09T10:43:03;7.70;99.90
7159;DHT22;63175;52.374;13.132;2023-01-09T10:45:35;7.70;99.90
7159;DHT22;63175;52.374;13.132;2023-01-09T10:48:12;7.70;99.90
7159;DHT22;63175;52.374;13.132;2023-01-09T10:50:44;7.70;99.90
7159;DHT22;63175;52.374;13.132;2023-01-09T10:53:18;7.70;99.90
7159;DHT22;63175;52.374;13.132;2023-01-09T10:55:47;7.70;99.90
7159;DHT22;63175;52.374;13.132;2023-01-09T10:58:17;7.70;99.90
7159;DHT22;63175;52.374;13.132;2023-01-09T11:00:45;7.80;99.90
7159;DHT22;63175;52.374;13.132;2023-01-09T11:03:14;7.80;99.90
7159;DHT22;63175;52.374;13.132;2023-01-09T11:05:42;7.80;99.90
7159;DHT22;63175;52.374;13.132;2023-01-09T11:08:20;7.80;99.90
7159;DHT22;63175;52.374;13.132;2023-01-09T11:10:49;7.80;99.90
7159;DHT22;63175;52.374;13.132;2023-01-09T11:13:19;7.80;99.90
7159;DHT22;63175;52.374;13.132;2023-01-09T11:15:58;7.80;99.90
7159;DHT22;63175;52.374;13.132;2023-01-09T11:18:26;7.80;99.90
7159;DHT22;63175;52.374;13.132;2023-01-09T11:20:53;7.80;99.90
7159;DHT22;63175;52.374;13.132;2023-01-09T11:23:26;7.80;99.90
7159;DHT22;63175;52.374;13.132;2023-01-09T11:25:55;7.90;99.90
7159;DHT22;63175;52.374;13.132;2023-01-09T11:28:22;7.80;99.90
7159;DHT22;63175;52.374;13.132;2023-01-09T11:30:51;7.90;99.90
7159;DHT22;63175;52.374;13.132;2023-01-09T11:33:21;7.90;99.90
7159;DHT22;63175;52.374;13.132;2023-01-09T11:36:07;7.90;99.90
7159;DHT22;63175;52.374;13.132;2023-01-09T11:38:48;8.00;99.90
7159;DHT22;63175;52.374;13.132;2023-01-09T11:41:18;8.10;99.90
7159;DHT22;63175;52.374;13.132;2023-01-09T11:43:47;8.30;99.90
7159;DHT22;63175;52.374;13.132;2023-01-09T11:46:32;8.50;99.90
7159;DHT22;63175;52.374;13.132;2023-01-09T11:49:01;8.60;99.90
7159;DHT22;63175;52.374;13.132;2023-01-09T11:51:29;8.70;99.90
7159;DHT22;63175;52.374;13.132;2023-01-09T11:54:11;8.80;99.90
7159;DHT22;63175;52.374;13.132;2023-01-09T11:56:40;8.90;99.90
7159;DHT22;63175;52.374;13.132;2023-01-09T11:59:12;9.00;99.90
7159;DHT22;63175;52.374;13.132;2023-01-09T12:01:56;9.20;99.90
7159;DHT22;63175;52.374;13.132;2023-01-09T12:04:26;9.40;99.90
7159;DHT22;63175;52.374;13.132;2023-01-09T12:07:22;9.70;99.90
7159;DHT22;63175;52.374;13.132;2023-01-09T12:09:58;9.80;99.90
7159;DHT22;63175;52.374;13.132;2023-01-09T12:12:34;10.00;99.90
7159;DHT22;63175;52.374;13.132;2023-01-09T12:15:20;10.10;99.90
7159;DHT22;63175;52.374;13.132;2023-01-09T12:18:02;10.30;99.90
7159;DHT22;63175;52.374;13.132;2023-01-09T12:20:45;10.30;99.90
7159;DHT22;63175;52.374;13.132;2023-01-09T12:23:24;10.30;99.90
7159;DHT22;63175;52.374;13.132;2023-01-09T12:26:03;10.30;99.90
7159;DHT22;63175;52.374;13.132;2023-01-09T12:28:51;10.20;99.90
7159;DHT22;63175;52.374;13.132;2023-01-09T12:31:31;10.20;99.90
7159;DHT22;63175;52.374;13.132;2023-01-09T12:34:10;10.20;99.90
7159;DHT22;63175;52.374;13.132;2023-01-09T12:36:49;10.20;99.90
7159;DHT22;63175;52.374;13.132;2023-01-09T12:39:27;10.30;99.90
7159;DHT22;63175;52.374;13.132;2023-01-09T12:42:10;10.20;99.90
7159;DHT22;63175;52.374;13.132;2023-01-09T12:44:49;10.20;99.90
7159;DHT22;63175;52.374;13.132;2023-01-09T12:47:42;10.10;99.90
7159;DHT22;63175;52.374;13.132;2023-01-09T12:50:30;10.10;99.90
7159;DHT22;63175;52.374;13.132;2023-01-09T12:53:05;10.10;99.90
7159;DHT22;63175;52.374;13.132;2023-01-09T12:55:38;10.20;99.90
7159;DHT22;63175;52.374;13.132;2023-01-09T12:58:13;10.30;99.90
7159;DHT22;63175;52.374;13.132;2023-01-09T13:00:45;10.30;99.90
7159;DHT22;63175;52.374;13.132;2023-01-09T13:03:19;10.50;99.90
7159;DHT22;63175;52.374;13.132;2023-01-09T13:05:49;10.60;99.90
7159;DHT22;63175;52.374;13.132;2023-01-09T13:08:21;10.70;99.90
7159;DHT22;63175;52.374;13.132;2023-01-09T13:10:52;10.80;99.90
7159;DHT22;63175;52.374;13.132;2023-01-09T13:13:24;10.90;99.90
7159;DHT22;63175;52.374;13.132;2023-01-09T13:15:54;10.90;99.90
7159;DHT22;63175;52.374;13.132;2023-01-09T13:18:28;11.00;99.90
7159;DHT22;63175;52.374;13.132;2023-01-09T13:20:58;11.10;99.90
7159;DHT22;63175;52.374;13.132;2023-01-09T13:23:39;11.10;99.90
7159;DHT22;63175;52.374;13.132;2023-01-09T13:26:10;11.20;99.90
7159;DHT22;63175;52.374;13.132;2023-01-09T13:28:42;11.20;99.90
7159;DHT22;63175;52.374;13.132;2023-01-09T13:31:38;11.20;99.90
7159;DHT22;63175;52.374;13.132;2023-01-09T13:34:10;11.20;99.90
7159;DHT22;63175;52.374;13.132;2023-01-09T13:36:44;11.20;99.90
7159;DHT22;63175;52.374;13.132;2023-01-09T13:39:19;11.20;99.90
7159;DHT22;63175;52.374;13.132;2023-01-09T13:41:52;11.20;99.90
7159;DHT22;63175;52.374;13.132;2023-01-09T13:44:38;11.20;99.90
7159;DHT22;63175;52.374;13.132;2023-01-09T13:47:18;11.10;99.90
7159;DHT22;63175;52.374;13.132;2023-01-09T13:50:00;11.00;99.90
7159;DHT22;63175;52.374;13.132;2023-01-09T13:52:30;10.90;99.90
7159;DHT22;63175;52.374;13.132;2023-01-09T13:55:03;10.90;99.90
7159;DHT22;63175;52.374;13.132;2023-01-09T14:01:01;10.80;99.90
7159;DHT22;63175;52.374;13.132;2023-01-09T14:03:34;10.70;99.90
7159;DHT22;63175;52.374;13.132;2023-01-09T14:06:18;10.60;99.90
7159;DHT22;63175;52.374;13.132;2023-01-09T14:08:47;10.50;99.90
7159;DHT22;63175;52.374;13.132;2023-01-09T14:11:20;10.40;99.90
7159;DHT22;63175;52.374;13.132;2023-01-09T14:14:02;10.40;99.90
7159;DHT22;63175;52.374;13.132;2023-01-09T14:16:31;10.30;99.90
7159;DHT22;63175;52.374;13.132;2023-01-09T14:19:05;10.20;99.90
7159;DHT22;63175;52.374;13.132;2023-01-09T14:21:44;10.20;99.90
7159;DHT22;63175;52.374;13.132;2023-01-09T14:24:22;10.10;99.90
7159;DHT22;63175;52.374;13.132;2023-01-09T14:26:52;10.10;99.90
7159;DHT22;63175;52.374;13.132;2023-01-09T14:29:43;10.10;99.90
7159;DHT22;63175;52.374;13.132;2023-01-09T14:32:43;10.10;99.90
7159;DHT22;63175;52.374;13.132;2023-01-09T14:35:16;10.00;99.90
7159;DHT22;63175;52.374;13.132;2023-01-09T14:37:59;10.00;99.90
7159;DHT22;63175;52.374;13.132;2023-01-09T14:40:27;10.00;99.90
7159;DHT22;63175;52.374;13.132;2023-01-09T14:42:58;10.00;99.90
7159;DHT22;63175;52.374;13.132;2023-01-09T14:45:26;10.00;99.90
7159;DHT22;63175;52.374;13.132;2023-01-09T14:47:59;9.90;99.90
7159;DHT22;63175;52.374;13.132;2023-01-09T14:50:31;9.90;99.90
7159;DHT22;63175;52.374;13.132;2023-01-09T14:53:03;9.80;99.90
7159;DHT22;63175;52.374;13.132;2023-01-09T14:55:35;9.80;99.90
7159;DHT22;63175;52.374;13.132;2023-01-09T14:58:21;9.70;99.90
7159;DHT22;63175;52.374;13.132;2023-01-09T15:00:53;9.60;99.90
7159;DHT22;63175;52.374;13.132;2023-01-09T15:03:23;9.60;99.90
7159;DHT22;63175;52.374;13.132;2023-01-09T15:05:51;9.50;99.90
7159;DHT22;63175;52.374;13.132;2023-01-09T15:08:21;9.50;99.90
7159;DHT22;63175;52.374;13.132;2023-01-09T15:10:52;9.40;99.90
7159;DHT22;63175;52.374;13.132;2023-01-09T15:13:28;9.40;99.90
7159;DHT22;63175;52.374;13.132;2023-01-09T15:15:56;9.40;99.90
7159;DHT22;63175;52.374;13.132;2023-01-09T15:18:28;9.30;99.90
7159;DHT22;63175;52.374;13.132;2023-01-09T15:20:58;9.30;99.90
7159;DHT22;63175;52.374;13.132;2023-01-09T15:23:27;9.20;99.90
7159;DHT22;63175;52.374;13.132;2023-01-09T15:25:55;9.30;99.90
7159;DHT22;63175;52.374;13.132;2023-01-09T15:28:28;9.20;99.90
7159;DHT22;63175;52.374;13.132;2023-01-09T15:31:02;9.20;99.90
7159;DHT22;63175;52.374;13.132;2023-01-09T15:33:31;9.20;99.90
7159;DHT22;63175;52.374;13.132;2023-01-09T15:36:01;9.10;99.90
7159;DHT22;63175;52.374;13.132;2023-01-09T15:38:31;9.10;99.90
7159;DHT22;63175;52.374;13.132;2023-01-09T15:41:05;9.10;99.90
7159;DHT22;63175;52.374;13.132;2023-01-09T15:43:33;9.10;99.90
7159;DHT22;63175;52.374;13.132;2023-01-09T15:46:01;9.10;99.90
7159;DHT22;63175;52.374;13.132;2023-01-09T15:48:32;9.10;99.90
7159;DHT22;63175;52.374;13.132;2023-01-09T15:51:02;9.00;99.90
7159;DHT22;63175;52.374;13.132;2023-01-09T15:53:29;9.00;99.90
7159;DHT22;63175;52.374;13.132;2023-01-09T15:56:21;9.00;99.90
7159;DHT22;63175;52.374;13.132;2023-01-09T15:58:49;9.00;99.90
7159;DHT22;63175;52.374;13.132;2023-01-09T16:01:28;9.00;99.90
7159;DHT22;63175;52.374;13.132;2023-01-09T16:04:02;8.90;99.90
7159;DHT22;63175;52.374;13.132;2023-01-09T16:06:31;8.90;99.90
7159;DHT22;63175;52.374;13.132;2023-01-09T16:08:59;8.90;99.90
7159;DHT22;63175;52.374;13.132;2023-01-09T16:11:28;8.90;99.90
7159;DHT22;63175;52.374;13.132;2023-01-09T16:13:58;8.90;99.90
7159;DHT22;63175;52.374;13.132;2023-01-09T16:16:29;8.90;99.90
7159;DHT22;63175;52.374;13.132;2023-01-09T16:18:58;8.80;99.90
7159;DHT22;63175;52.374;13.132;2023-01-09T16:21:35;8.80;99.90